Terminal Aerodrome Forecast
Issued by NWS Pocatello, ID

Home | Current Version | Previous Version | Text Only | Print | Product List | Glossary On
Versions: 1 2 3 4 5 6 7 8 9 10 11 12 13 14 15 16 17 18 19 20 21
000
FTUS45 KPIH 241726
TAFBYI
TAF
KBYI 241726Z 2418/2518 VRB05KT P6SM VCSH BKN015 BKN070
     FM241900 28009KT P6SM -SHRA VCTS SCT025 BKN070CB
     FM250400 VRB06KT P6SM VCSH BKN070
     FM250800 VRB06KT 3SM BR SCT002 BKN080=

USA.gov is the U.S. government's official web portal to all federal, state and local government web resources and services.